Aviation Digital Data Service (ADDS)

Output produced by METARs form (0036 UTC 10 February 2016)
found at http://www.aviationweather.gov/adds/metars/
 
SEGU 100018Z 21007KT 3000 RA SCT005 BKN026 OVC090 25/24 Q1010 TEMPO 2000 RMK A2984
SEGU 092235Z 1000/1024 23006KT 9999 BKN020 BKN080 
     TEMPO 1000/1003 6000 RA BKN020 OVC070 
     FM100600 23006KT 9999 FEW010 BKN017 BKN070 
     FM101200 VRB03KT 9999 BKN020 BKN080 
     FM101800 15005KT 9999 BKN020 BKN080 
     TEMPO 1021/1024 8000 SHRA TX31/1020Z TN25/1010Z
       
SEMT 100000Z 02003KT 9999 BKN016 26/25 Q1010 RMK A2984
SEMT 092235Z 1000/1024 19006KT 9999 FEW010 BKN020 OVC090 
     TEMPO 1002/1005 RA 
     FM100500 17004KT 9999 FEW010 OVC020 
     TEMPO 1012/1014 RA 
     FM101700 34006KT 9999 BKN023 OVC100 TX29/1020Z TN24/1010Z